createdAt,value
2023-01-18T00:03:34.797Z,94699.44
2023-01-18T00:08:40.249Z,94701.13
2023-01-18T00:13:44.648Z,94700.19
2023-01-18T00:18:53.664Z,94702.41
2023-01-18T00:23:56.837Z,94710.31
2023-01-18T00:28:59.987Z,94700.28
2023-01-18T00:34:04.492Z,94703.13
2023-01-18T00:39:08.853Z,94699.81
2023-01-18T00:44:11.984Z,94706.63
2023-01-18T00:49:16.628Z,94699.53
2023-01-18T00:54:19.949Z,94699.19
2023-01-18T00:59:23.306Z,94702.03
2023-01-18T01:04:45.504Z,94691.88
2023-01-18T01:09:48.778Z,94695.88
2023-01-18T01:15:09.216Z,94688.91
2023-01-18T01:20:31.322Z,94700.50
2023-01-18T01:25:51.789Z,94717.81
2023-01-18T01:30:58.689Z,94727.16
2023-01-18T01:36:06.497Z,94725.56
2023-01-18T01:41:15.039Z,94714.84
2023-01-18T01:46:36.522Z,94710.56
2023-01-18T01:51:42.857Z,94716.97
2023-01-18T01:56:49.872Z,94720.75
2023-01-18T02:01:53.151Z,94714.94
2023-01-18T02:06:57.629Z,94713.25
2023-01-18T02:12:00.939Z,94713.34
2023-01-18T02:17:23.162Z,94715.03
2023-01-18T02:22:46.541Z,94719.31
2023-01-18T02:27:56.774Z,94713.53
2023-01-18T02:33:07.698Z,94726.84
2023-01-18T02:38:14.255Z,94720.97
2023-01-18T02:43:46.762Z,94728.59
2023-01-18T02:48:52.076Z,94735.41
2023-01-18T02:53:55.235Z,94730.44
2023-01-18T02:59:05.730Z,94733.31
2023-01-18T03:04:14.661Z,94737.69
2023-01-18T03:09:21.581Z,94733.00
2023-01-18T03:14:37.426Z,94730.47
2023-01-18T03:20:06.517Z,94731.19
2023-01-18T03:25:14.121Z,94728.91
2023-01-18T03:30:34.643Z,94732.31
2023-01-18T03:35:40.199Z,94735.19
2023-01-18T03:40:43.786Z,94735.06
2023-01-18T03:45:50.516Z,94744.94
2023-01-18T03:51:00.944Z,94746.16
2023-01-18T03:56:10.981Z,94760.13
2023-01-18T04:01:15.092Z,94756.63
2023-01-18T04:06:22.886Z,94763.28
2023-01-18T04:11:26.156Z,94761.91
2023-01-18T04:16:29.314Z,94756.94
2023-01-18T04:21:33.912Z,94765.13
2023-01-18T04:26:37.130Z,94771.22
2023-01-18T04:31:40.359Z,94769.31
2023-01-18T04:36:44.937Z,94766.03
2023-01-18T04:41:48.153Z,94765.78
2023-01-18T04:46:51.418Z,94771.50
2023-01-18T04:51:56.031Z,94769.31
2023-01-18T04:56:59.169Z,94773.84
2023-01-18T05:02:02.451Z,94779.25
2023-01-18T05:07:07.514Z,94779.94
2023-01-18T05:12:10.662Z,94787.59
2023-01-18T05:17:14.287Z,94791.88
2023-01-18T05:22:18.878Z,94801.69
2023-01-18T05:27:22.392Z,94808.53
2023-01-18T05:32:25.824Z,94822.22
2023-01-18T05:37:30.391Z,94829.41
2023-01-18T05:42:33.538Z,94830.41
2023-01-18T05:47:36.645Z,94833.97
2023-01-18T05:52:41.309Z,94836.66
2023-01-18T05:57:45.669Z,94842.63
2023-01-18T06:02:50.505Z,94849.44
2023-01-18T06:07:55.601Z,94847.13
2023-01-18T06:12:59.048Z,94858.28
2023-01-18T06:18:02.539Z,94862.75
2023-01-18T06:23:07.080Z,94861.69
2023-01-18T06:28:10.199Z,94869.78
2023-01-18T06:33:13.940Z,94874.66
2023-01-18T06:38:18.850Z,94879.69
2023-01-18T06:43:23.222Z,94882.25
2023-01-18T06:48:28.059Z,94895.38
2023-01-18T06:53:35.567Z,94897.91
2023-01-18T06:58:40.706Z,94899.19
2023-01-18T07:03:43.860Z,94911.06
2023-01-18T07:08:49.653Z,94919.13
2023-01-18T07:13:53.949Z,94926.47
2023-01-18T07:18:59.858Z,94941.22
2023-01-18T07:24:04.561Z,94938.84
2023-01-18T07:29:09.114Z,94946.66
2023-01-18T07:34:12.401Z,94957.00
2023-01-18T07:39:16.941Z,94962.38
2023-01-18T07:44:19.941Z,94969.84
2023-01-18T07:49:23.284Z,94976.09
2023-01-18T07:54:27.741Z,94975.94
2023-01-18T07:59:32.484Z,94984.63
2023-01-18T08:04:35.663Z,94988.44
2023-01-18T08:09:40.163Z,94996.69
2023-01-18T08:14:45.604Z,95000.97
2023-01-18T08:19:48.878Z,95013.22
2023-01-18T08:24:55.284Z,95010.22
2023-01-18T08:29:58.579Z,95013.50
2023-01-18T08:35:01.875Z,95024.06
2023-01-18T08:40:07.549Z,95040.78
2023-01-18T08:45:11.678Z,95050.13
2023-01-18T08:50:14.884Z,95055.28
2023-01-18T08:55:19.625Z,95054.41
2023-01-18T09:00:26.800Z,95053.47
2023-01-18T09:05:30.325Z,95070.06
2023-01-18T09:10:37.517Z,95071.28
2023-01-18T09:15:40.842Z,95072.81
2023-01-18T09:20:43.879Z,95073.50
2023-01-18T09:25:48.414Z,95080.56
2023-01-18T09:30:51.515Z,95084.47
2023-01-18T09:35:55.711Z,95093.63
2023-01-18T09:41:00.480Z,95104.72
2023-01-18T09:46:03.532Z,95110.38
2023-01-18T09:51:10.663Z,95121.19
2023-01-18T09:56:19.897Z,95129.28
2023-01-18T10:01:28.317Z,95122.69
2023-01-18T10:06:45.083Z,95127.47
2023-01-18T10:11:56.016Z,95128.28
2023-01-18T10:17:02.860Z,95143.19
2023-01-18T10:22:09.929Z,95137.66
2023-01-18T10:27:42.879Z,95143.50
2023-01-18T10:32:53.015Z,95147.78
2023-01-18T10:38:00.476Z,95155.75
2023-01-18T10:43:12.262Z,95161.22
2023-01-18T10:48:29.007Z,95163.41
2023-01-18T10:53:34.135Z,95169.28
2023-01-18T10:58:45.373Z,95178.53
2023-01-18T11:03:52.298Z,95189.22
2023-01-18T11:08:55.560Z,95188.09
2023-01-18T11:14:00.112Z,95191.88
2023-01-18T11:19:05.094Z,95197.41
2023-01-18T11:24:13.801Z,95200.53
2023-01-18T11:29:18.882Z,95207.84
2023-01-18T11:34:28.246Z,95206.56
2023-01-18T11:39:34.147Z,95208.25
2023-01-18T11:44:44.761Z,95213.84
2023-01-18T11:49:55.818Z,95226.06
2023-01-18T11:55:04.104Z,95223.47
2023-01-18T12:00:17.463Z,95223.63
2023-01-18T12:05:32.974Z,95230.28
2023-01-18T12:10:48.856Z,95240.66
2023-01-18T12:16:01.391Z,95246.31
2023-01-18T12:21:12.126Z,95255.97
2023-01-18T12:26:30.496Z,95260.69
2023-01-18T12:31:51.260Z,95272.50
2023-01-18T12:37:24.858Z,95275.09
2023-01-18T12:42:43.585Z,95284.50
2023-01-18T12:47:56.462Z,95287.41
2023-01-18T12:53:03.521Z,95291.72
2023-01-18T12:58:07.395Z,95292.22
2023-01-18T13:03:15.927Z,95301.75
2023-01-18T13:08:29.216Z,95313.66
2023-01-18T13:13:33.180Z,95320.50
2023-01-18T13:18:44.320Z,95333.19
2023-01-18T13:23:59.991Z,95330.19
2023-01-18T13:29:17.456Z,95346.72
2023-01-18T13:34:32.330Z,95358.56
2023-01-18T13:39:46.540Z,95372.63
2023-01-18T13:44:51.475Z,95381.66
2023-01-18T13:49:55.909Z,95387.88
2023-01-18T13:55:24.325Z,95399.16
2023-01-18T14:00:28.555Z,95406.81
2023-01-18T14:05:38.949Z,95418.03
2023-01-18T14:10:48.925Z,95431.00
2023-01-18T14:15:54.416Z,95437.78
2023-01-18T14:21:12.515Z,95441.97
2023-01-18T14:26:18.055Z,95467.47
2023-01-18T14:31:26.040Z,95474.94
2023-01-18T14:36:33.040Z,95473.19
2023-01-18T14:41:38.395Z,95472.22
2023-01-18T14:46:43.100Z,95476.97
2023-01-18T14:51:50.984Z,95486.22
2023-01-18T14:57:03.004Z,95493.13
2023-01-18T15:02:17.840Z,95507.28
2023-01-18T15:07:30.700Z,95512.56
2023-01-18T15:12:34.888Z,95522.69
2023-01-18T15:17:39.059Z,95539.84
2023-01-18T15:22:44.353Z,95549.72
2023-01-18T15:27:52.734Z,95552.94
2023-01-18T15:32:58.467Z,95564.78
2023-01-18T15:38:05.137Z,95567.97
2023-01-18T15:43:20.658Z,95574.97
2023-01-18T15:48:25.789Z,95586.09
2023-01-18T15:53:33.364Z,95586.16
2023-01-18T15:58:41.146Z,95593.81
2023-01-18T16:03:57.315Z,95596.34
2023-01-18T16:09:10.471Z,95608.69
2023-01-18T16:14:24.805Z,95618.69
2023-01-18T16:19:32.142Z,95627.22
2023-01-18T16:24:41.116Z,95629.09
2023-01-18T16:29:46.640Z,95640.41
2023-01-18T16:34:50.541Z,95652.47
2023-01-18T16:39:58.335Z,95671.84
2023-01-18T16:45:01.669Z,95668.50
2023-01-18T16:50:14.542Z,95679.41
2023-01-18T16:55:19.540Z,95684.84
2023-01-18T17:00:24.536Z,95689.25
2023-01-18T17:05:30.305Z,95697.50
2023-01-18T17:10:39.484Z,95708.25
2023-01-18T17:15:43.966Z,95719.69
2023-01-18T17:20:47.219Z,95720.03
2023-01-18T17:25:51.927Z,95734.56
2023-01-18T17:30:55.839Z,95743.31
2023-01-18T17:35:59.053Z,95750.78
2023-01-18T17:41:03.729Z,95762.22
2023-01-18T17:46:08.105Z,95752.69
2023-01-18T17:51:13.956Z,95763.59
2023-01-18T17:56:19.645Z,95767.25
2023-01-18T18:01:23.442Z,95775.63
2023-01-18T18:06:31.539Z,95781.47
2023-01-18T18:11:36.250Z,95786.59
2023-01-18T18:16:43.440Z,95797.63
2023-01-18T18:21:47.097Z,95810.84
2023-01-18T18:26:51.944Z,95810.53
2023-01-18T18:31:55.218Z,95821.41
2023-01-18T18:36:58.647Z,95822.13
2023-01-18T18:42:03.342Z,95834.88
2023-01-18T18:47:07.645Z,95841.81
2023-01-18T18:52:10.981Z,95851.28
2023-01-18T18:57:15.632Z,95850.13
2023-01-18T19:02:18.965Z,95862.06
2023-01-18T19:07:22.367Z,95876.16
2023-01-18T19:12:27.121Z,95886.59
2023-01-18T19:17:31.489Z,95895.44
2023-01-18T19:22:38.021Z,95906.84
2023-01-18T19:27:43.779Z,95908.38
2023-01-18T19:32:48.012Z,95913.69
2023-01-18T19:37:51.919Z,95916.94
2023-01-18T19:42:59.784Z,95921.28
2023-01-18T19:48:04.070Z,95924.97
2023-01-18T19:53:07.596Z,95935.69
2023-01-18T19:58:12.978Z,95936.13
2023-01-18T20:03:16.732Z,95936.50
2023-01-18T20:08:19.956Z,95938.38
2023-01-18T20:13:26.953Z,95940.53
2023-01-18T20:18:31.069Z,95948.50
2023-01-18T20:23:35.673Z,95946.00
2023-01-18T20:28:41.483Z,95955.22
2023-01-18T20:33:45.472Z,95949.13
2023-01-18T20:38:48.989Z,95961.28
2023-01-18T20:43:54.012Z,95961.53
2023-01-18T20:48:57.808Z,95976.28
2023-01-18T20:54:02.241Z,95974.00
2023-01-18T20:59:07.262Z,95986.25
2023-01-18T21:04:10.544Z,95977.44
2023-01-18T21:09:14.106Z,95977.22
2023-01-18T21:14:20.242Z,95987.97
2023-01-18T21:19:23.723Z,95992.47
2023-01-18T21:24:27.072Z,95990.66
2023-01-18T21:29:32.194Z,95979.38
2023-01-18T21:34:35.823Z,95999.88
2023-01-18T21:39:39.027Z,96004.44
2023-01-18T21:45:01.093Z,96014.91
2023-01-18T21:50:22.162Z,96015.81
2023-01-18T21:55:25.371Z,96030.31
2023-01-18T22:00:30.163Z,96028.28
2023-01-18T22:05:34.194Z,96027.72
2023-01-18T22:10:37.258Z,96034.88
2023-01-18T22:15:41.950Z,96050.19
2023-01-18T22:20:45.318Z,96058.19
2023-01-18T22:25:48.492Z,96075.22
2023-01-18T22:30:53.263Z,96072.38
2023-01-18T22:36:00.201Z,96085.91
2023-01-18T22:41:04.579Z,96085.84
2023-01-18T22:46:10.129Z,96089.31
2023-01-18T22:51:16.341Z,96096.28
2023-01-18T22:56:21.085Z,96097.00
2023-01-18T23:01:27.179Z,96105.56
2023-01-18T23:06:45.630Z,96100.81
2023-01-18T23:11:49.113Z,96092.69
2023-01-18T23:17:10.856Z,96084.84
2023-01-18T23:22:14.044Z,96076.53
2023-01-18T23:27:17.095Z,96084.06
2023-01-18T23:32:26.570Z,96065.47
2023-01-18T23:37:29.720Z,96071.44
2023-01-18T23:42:50.220Z,96074.63
2023-01-18T23:48:12.249Z,96085.44
2023-01-18T23:53:33.270Z,96090.44
2023-01-18T23:58:36.402Z,96097.66
